sensor_id;sensor_type;location;lat;lon;timestamp;P1;durP1;ratioP1;P2;durP2;ratioP2
19887;SDS011;10106;51.332;12.336;2022-10-18T00:01:08;5.57;;;3.90;;
19887;SDS011;10106;51.332;12.336;2022-10-18T00:03:34;7.80;;;4.33;;
19887;SDS011;10106;51.332;12.336;2022-10-18T00:06:00;7.80;;;4.30;;
19887;SDS011;10106;51.332;12.336;2022-10-18T00:08:26;6.17;;;4.03;;
19887;SDS011;10106;51.332;12.336;2022-10-18T00:10:52;8.80;;;4.23;;
19887;SDS011;10106;51.332;12.336;2022-10-18T00:13:18;5.30;;;4.10;;
19887;SDS011;10106;51.332;12.336;2022-10-18T00:16:03;7.27;;;4.60;;
19887;SDS011;10106;51.332;12.336;2022-10-18T00:18:33;7.27;;;4.30;;
19887;SDS011;10106;51.332;12.336;2022-10-18T00:21:04;4.80;;;4.03;;
19887;SDS011;10106;51.332;12.336;2022-10-18T00:23:32;8.47;;;4.53;;
19887;SDS011;10106;51.332;12.336;2022-10-18T00:25:59;8.60;;;4.63;;
19887;SDS011;10106;51.332;12.336;2022-10-18T00:28:26;9.10;;;4.50;;
19887;SDS011;10106;51.332;12.336;2022-10-18T00:30:52;5.13;;;3.90;;
19887;SDS011;10106;51.332;12.336;2022-10-18T00:33:17;10.13;;;4.50;;
19887;SDS011;10106;51.332;12.336;2022-10-18T00:35:43;8.57;;;4.53;;
19887;SDS011;10106;51.332;12.336;2022-10-18T00:38:08;10.90;;;4.57;;
19887;SDS011;10106;51.332;12.336;2022-10-18T00:40:34;11.17;;;5.60;;
19887;SDS011;10106;51.332;12.336;2022-10-18T00:43:00;10.80;;;5.27;;
19887;SDS011;10106;51.332;12.336;2022-10-18T00:45:25;7.00;;;4.43;;
19887;SDS011;10106;51.332;12.336;2022-10-18T00:47:54;8.97;;;4.53;;
19887;SDS011;10106;51.332;12.336;2022-10-18T00:50:23;10.30;;;5.80;;
19887;SDS011;10106;51.332;12.336;2022-10-18T00:53:01;7.90;;;4.43;;
19887;SDS011;10106;51.332;12.336;2022-10-18T00:55:31;6.37;;;4.30;;
19887;SDS011;10106;51.332;12.336;2022-10-18T00:57:58;8.03;;;4.37;;
19887;SDS011;10106;51.332;12.336;2022-10-18T01:00:24;10.10;;;4.60;;
19887;SDS011;10106;51.332;12.336;2022-10-18T01:02:50;9.80;;;4.33;;
19887;SDS011;10106;51.332;12.336;2022-10-18T01:05:16;7.47;;;4.90;;
19887;SDS011;10106;51.332;12.336;2022-10-18T01:15:45;6.43;;;3.63;;
19887;SDS011;10106;51.332;12.336;2022-10-18T01:18:17;13.53;;;4.20;;
19887;SDS011;10106;51.332;12.336;2022-10-18T01:32:26;6.93;;;3.83;;
19887;SDS011;10106;51.332;12.336;2022-10-18T01:35:04;6.90;;;4.13;;
19887;SDS011;10106;51.332;12.336;2022-10-18T01:37:38;5.60;;;3.93;;
19887;SDS011;10106;51.332;12.336;2022-10-18T01:40:05;6.70;;;4.27;;
19887;SDS011;10106;51.332;12.336;2022-10-18T01:42:32;9.73;;;4.47;;
19887;SDS011;10106;51.332;12.336;2022-10-18T01:44:59;12.33;;;4.10;;
19887;SDS011;10106;51.332;12.336;2022-10-18T01:47:27;8.60;;;4.50;;
19887;SDS011;10106;51.332;12.336;2022-10-18T01:49:59;4.70;;;3.77;;
19887;SDS011;10106;51.332;12.336;2022-10-18T01:52:26;20.40;;;5.10;;
19887;SDS011;10106;51.332;12.336;2022-10-18T01:54:52;5.20;;;4.03;;
19887;SDS011;10106;51.332;12.336;2022-10-18T01:57:23;7.53;;;4.13;;
19887;SDS011;10106;51.332;12.336;2022-10-18T01:59:55;7.77;;;4.37;;
19887;SDS011;10106;51.332;12.336;2022-10-18T02:02:56;7.13;;;4.40;;
19887;SDS011;10106;51.332;12.336;2022-10-18T02:10:51;9.03;;;4.70;;
19887;SDS011;10106;51.332;12.336;2022-10-18T02:13:27;7.73;;;4.70;;
19887;SDS011;10106;51.332;12.336;2022-10-18T02:15:58;8.37;;;4.70;;
19887;SDS011;10106;51.332;12.336;2022-10-18T02:18:31;9.10;;;4.87;;
19887;SDS011;10106;51.332;12.336;2022-10-18T02:21:02;8.93;;;4.53;;
19887;SDS011;10106;51.332;12.336;2022-10-18T02:23:32;6.37;;;4.87;;
19887;SDS011;10106;51.332;12.336;2022-10-18T02:25:58;6.97;;;4.50;;
19887;SDS011;10106;51.332;12.336;2022-10-18T02:28:25;8.23;;;5.20;;
19887;SDS011;10106;51.332;12.336;2022-10-18T02:30:57;6.50;;;4.30;;
19887;SDS011;10106;51.332;12.336;2022-10-18T02:33:44;11.00;;;5.17;;
19887;SDS011;10106;51.332;12.336;2022-10-18T02:39:09;7.60;;;4.60;;
19887;SDS011;10106;51.332;12.336;2022-10-18T02:41:42;6.63;;;5.50;;
19887;SDS011;10106;51.332;12.336;2022-10-18T02:44:08;5.87;;;4.70;;
19887;SDS011;10106;51.332;12.336;2022-10-18T02:46:34;6.17;;;4.50;;
19887;SDS011;10106;51.332;12.336;2022-10-18T02:49:00;8.80;;;4.57;;
19887;SDS011;10106;51.332;12.336;2022-10-18T02:51:26;12.60;;;5.37;;
19887;SDS011;10106;51.332;12.336;2022-10-18T02:53:51;6.70;;;4.90;;
19887;SDS011;10106;51.332;12.336;2022-10-18T02:56:17;7.70;;;4.83;;
19887;SDS011;10106;51.332;12.336;2022-10-18T02:58:42;8.40;;;5.47;;
19887;SDS011;10106;51.332;12.336;2022-10-18T03:01:08;8.50;;;4.90;;
19887;SDS011;10106;51.332;12.336;2022-10-18T03:03:34;6.80;;;4.77;;
19887;SDS011;10106;51.332;12.336;2022-10-18T03:05:59;7.83;;;4.77;;
19887;SDS011;10106;51.332;12.336;2022-10-18T03:08:25;5.93;;;4.53;;
19887;SDS011;10106;51.332;12.336;2022-10-18T03:10:50;10.13;;;4.93;;
19887;SDS011;10106;51.332;12.336;2022-10-18T03:13:16;6.00;;;4.40;;
19887;SDS011;10106;51.332;12.336;2022-10-18T03:15:42;8.10;;;4.70;;
19887;SDS011;10106;51.332;12.336;2022-10-18T03:18:08;7.33;;;5.23;;
19887;SDS011;10106;51.332;12.336;2022-10-18T03:20:33;8.73;;;5.50;;
19887;SDS011;10106;51.332;12.336;2022-10-18T03:22:59;12.00;;;5.37;;
19887;SDS011;10106;51.332;12.336;2022-10-18T03:25:25;6.70;;;5.27;;
19887;SDS011;10106;51.332;12.336;2022-10-18T03:27:50;8.20;;;4.43;;
19887;SDS011;10106;51.332;12.336;2022-10-18T03:30:16;9.73;;;5.30;;
19887;SDS011;10106;51.332;12.336;2022-10-18T03:32:42;9.33;;;5.60;;
19887;SDS011;10106;51.332;12.336;2022-10-18T03:35:07;9.00;;;4.90;;
19887;SDS011;10106;51.332;12.336;2022-10-18T03:37:33;11.00;;;5.80;;
19887;SDS011;10106;51.332;12.336;2022-10-18T03:40:00;8.77;;;5.27;;
19887;SDS011;10106;51.332;12.336;2022-10-18T03:42:25;8.43;;;5.07;;
19887;SDS011;10106;51.332;12.336;2022-10-18T03:44:51;10.77;;;6.20;;
19887;SDS011;10106;51.332;12.336;2022-10-18T03:47:17;8.47;;;5.80;;
19887;SDS011;10106;51.332;12.336;2022-10-18T03:49:42;10.93;;;5.27;;
19887;SDS011;10106;51.332;12.336;2022-10-18T03:52:08;6.77;;;5.27;;
19887;SDS011;10106;51.332;12.336;2022-10-18T03:54:33;8.43;;;5.10;;
19887;SDS011;10106;51.332;12.336;2022-10-18T03:56:59;10.63;;;5.33;;
19887;SDS011;10106;51.332;12.336;2022-10-18T03:59:25;7.70;;;4.67;;
19887;SDS011;10106;51.332;12.336;2022-10-18T04:01:50;5.07;;;4.33;;
19887;SDS011;10106;51.332;12.336;2022-10-18T04:04:16;9.77;;;4.93;;
19887;SDS011;10106;51.332;12.336;2022-10-18T04:06:42;8.60;;;4.43;;
19887;SDS011;10106;51.332;12.336;2022-10-18T04:09:07;16.00;;;5.57;;
19887;SDS011;10106;51.332;12.336;2022-10-18T04:11:34;7.40;;;5.90;;
19887;SDS011;10106;51.332;12.336;2022-10-18T04:13:59;6.40;;;5.30;;
19887;SDS011;10106;51.332;12.336;2022-10-18T04:16:25;8.50;;;4.67;;
19887;SDS011;10106;51.332;12.336;2022-10-18T04:18:51;12.27;;;5.30;;
19887;SDS011;10106;51.332;12.336;2022-10-18T04:21:16;13.03;;;4.57;;
19887;SDS011;10106;51.332;12.336;2022-10-18T04:23:42;8.20;;;4.90;;
19887;SDS011;10106;51.332;12.336;2022-10-18T04:26:07;13.90;;;5.47;;
19887;SDS011;10106;51.332;12.336;2022-10-18T04:28:33;5.87;;;4.50;;
19887;SDS011;10106;51.332;12.336;2022-10-18T04:30:59;7.73;;;5.10;;
19887;SDS011;10106;51.332;12.336;2022-10-18T04:33:25;7.63;;;5.47;;
19887;SDS011;10106;51.332;12.336;2022-10-18T04:35:51;7.40;;;4.20;;
19887;SDS011;10106;51.332;12.336;2022-10-18T04:38:18;10.27;;;5.40;;
19887;SDS011;10106;51.332;12.336;2022-10-18T04:40:43;8.87;;;5.53;;
19887;SDS011;10106;51.332;12.336;2022-10-18T04:43:09;6.50;;;4.63;;
19887;SDS011;10106;51.332;12.336;2022-10-18T04:45:35;7.93;;;5.27;;
19887;SDS011;10106;51.332;12.336;2022-10-18T04:48:00;7.70;;;4.83;;
19887;SDS011;10106;51.332;12.336;2022-10-18T04:50:27;7.70;;;5.07;;
19887;SDS011;10106;51.332;12.336;2022-10-18T04:52:52;8.23;;;4.60;;
19887;SDS011;10106;51.332;12.336;2022-10-18T04:55:18;16.03;;;5.67;;
19887;SDS011;10106;51.332;12.336;2022-10-18T04:57:44;8.00;;;4.63;;
19887;SDS011;10106;51.332;12.336;2022-10-18T05:07:50;7.50;;;4.93;;
19887;SDS011;10106;51.332;12.336;2022-10-18T05:10:16;6.90;;;4.60;;
19887;SDS011;10106;51.332;12.336;2022-10-18T05:12:41;11.70;;;5.23;;
19887;SDS011;10106;51.332;12.336;2022-10-18T05:15:07;9.97;;;5.33;;
19887;SDS011;10106;51.332;12.336;2022-10-18T05:17:33;10.90;;;5.70;;
19887;SDS011;10106;51.332;12.336;2022-10-18T05:19:59;10.23;;;5.40;;
19887;SDS011;10106;51.332;12.336;2022-10-18T05:22:25;5.50;;;4.77;;
19887;SDS011;10106;51.332;12.336;2022-10-18T05:24:50;7.87;;;5.13;;
19887;SDS011;10106;51.332;12.336;2022-10-18T05:27:16;8.37;;;4.97;;
19887;SDS011;10106;51.332;12.336;2022-10-18T05:29:41;8.53;;;5.80;;
19887;SDS011;10106;51.332;12.336;2022-10-18T05:32:07;6.43;;;4.30;;
19887;SDS011;10106;51.332;12.336;2022-10-18T05:34:33;7.37;;;5.70;;
19887;SDS011;10106;51.332;12.336;2022-10-18T05:36:58;11.80;;;5.70;;
19887;SDS011;10106;51.332;12.336;2022-10-18T05:39:24;10.10;;;5.70;;
19887;SDS011;10106;51.332;12.336;2022-10-18T05:41:50;8.57;;;5.40;;
19887;SDS011;10106;51.332;12.336;2022-10-18T05:44:15;6.93;;;5.47;;
19887;SDS011;10106;51.332;12.336;2022-10-18T05:46:41;10.23;;;5.93;;
19887;SDS011;10106;51.332;12.336;2022-10-18T05:49:08;8.57;;;5.73;;
19887;SDS011;10106;51.332;12.336;2022-10-18T05:51:36;9.20;;;5.80;;
19887;SDS011;10106;51.332;12.336;2022-10-18T05:54:01;10.57;;;5.97;;
19887;SDS011;10106;51.332;12.336;2022-10-18T05:56:27;14.57;;;5.60;;
19887;SDS011;10106;51.332;12.336;2022-10-18T05:58:53;7.07;;;5.73;;
19887;SDS011;10106;51.332;12.336;2022-10-18T06:01:18;8.83;;;5.73;;
19887;SDS011;10106;51.332;12.336;2022-10-18T06:03:44;13.93;;;6.00;;
19887;SDS011;10106;51.332;12.336;2022-10-18T06:06:10;9.37;;;6.60;;
19887;SDS011;10106;51.332;12.336;2022-10-18T06:08:37;14.20;;;8.20;;
19887;SDS011;10106;51.332;12.336;2022-10-18T06:11:08;9.80;;;6.57;;
19887;SDS011;10106;51.332;12.336;2022-10-18T06:13:39;12.93;;;7.00;;
19887;SDS011;10106;51.332;12.336;2022-10-18T06:16:05;10.67;;;6.20;;
19887;SDS011;10106;51.332;12.336;2022-10-18T06:18:31;11.77;;;7.57;;
19887;SDS011;10106;51.332;12.336;2022-10-18T06:20:57;10.83;;;7.90;;
19887;SDS011;10106;51.332;12.336;2022-10-18T06:23:23;10.33;;;6.33;;
19887;SDS011;10106;51.332;12.336;2022-10-18T06:25:50;15.47;;;7.40;;
19887;SDS011;10106;51.332;12.336;2022-10-18T06:28:15;10.97;;;7.10;;
19887;SDS011;10106;51.332;12.336;2022-10-18T06:30:41;16.03;;;6.23;;
19887;SDS011;10106;51.332;12.336;2022-10-18T06:33:06;11.50;;;6.83;;
19887;SDS011;10106;51.332;12.336;2022-10-18T06:35:32;10.80;;;7.10;;
19887;SDS011;10106;51.332;12.336;2022-10-18T06:37:58;16.47;;;7.20;;
19887;SDS011;10106;51.332;12.336;2022-10-18T06:40:23;12.80;;;7.00;;
19887;SDS011;10106;51.332;12.336;2022-10-18T06:42:49;16.37;;;7.37;;
19887;SDS011;10106;51.332;12.336;2022-10-18T06:45:15;13.40;;;8.17;;
19887;SDS011;10106;51.332;12.336;2022-10-18T06:47:42;11.07;;;7.60;;
19887;SDS011;10106;51.332;12.336;2022-10-18T06:50:08;11.97;;;7.40;;
19887;SDS011;10106;51.332;12.336;2022-10-18T06:52:35;24.10;;;8.00;;
19887;SDS011;10106;51.332;12.336;2022-10-18T06:55:01;11.27;;;7.70;;
19887;SDS011;10106;51.332;12.336;2022-10-18T06:57:26;12.00;;;8.27;;
19887;SDS011;10106;51.332;12.336;2022-10-18T06:59:52;11.30;;;7.47;;
19887;SDS011;10106;51.332;12.336;2022-10-18T07:02:17;11.07;;;7.27;;
19887;SDS011;10106;51.332;12.336;2022-10-18T07:04:43;11.17;;;7.10;;
19887;SDS011;10106;51.332;12.336;2022-10-18T07:07:08;12.90;;;7.30;;
19887;SDS011;10106;51.332;12.336;2022-10-18T07:09:34;14.57;;;6.97;;
19887;SDS011;10106;51.332;12.336;2022-10-18T07:12:00;10.50;;;6.50;;
19887;SDS011;10106;51.332;12.336;2022-10-18T07:14:25;13.60;;;7.53;;
19887;SDS011;10106;51.332;12.336;2022-10-18T07:16:51;11.83;;;6.93;;
19887;SDS011;10106;51.332;12.336;2022-10-18T07:19:17;9.27;;;6.70;;
19887;SDS011;10106;51.332;12.336;2022-10-18T07:21:42;9.80;;;7.00;;
19887;SDS011;10106;51.332;12.336;2022-10-18T07:24:08;16.30;;;8.17;;
19887;SDS011;10106;51.332;12.336;2022-10-18T07:26:34;11.90;;;7.83;;
19887;SDS011;10106;51.332;12.336;2022-10-18T07:31:30;18.30;;;7.67;;
19887;SDS011;10106;51.332;12.336;2022-10-18T07:33:57;13.40;;;7.63;;
19887;SDS011;10106;51.332;12.336;2022-10-18T07:36:23;13.73;;;7.07;;
19887;SDS011;10106;51.332;12.336;2022-10-18T07:38:52;11.30;;;7.30;;
19887;SDS011;10106;51.332;12.336;2022-10-18T07:41:18;15.00;;;7.60;;
19887;SDS011;10106;51.332;12.336;2022-10-18T07:43:48;13.20;;;7.40;;
19887;SDS011;10106;51.332;12.336;2022-10-18T07:46:15;13.00;;;7.43;;
19887;SDS011;10106;51.332;12.336;2022-10-18T07:48:42;14.37;;;8.57;;
19887;SDS011;10106;51.332;12.336;2022-10-18T07:51:08;12.37;;;7.67;;
19887;SDS011;10106;51.332;12.336;2022-10-18T07:53:34;12.13;;;7.60;;
19887;SDS011;10106;51.332;12.336;2022-10-18T07:56:02;12.47;;;7.40;;
19887;SDS011;10106;51.332;12.336;2022-10-18T07:58:30;9.63;;;6.67;;
19887;SDS011;10106;51.332;12.336;2022-10-18T08:00:56;14.07;;;7.20;;
19887;SDS011;10106;51.332;12.336;2022-10-18T08:03:25;9.50;;;5.80;;
19887;SDS011;10106;51.332;12.336;2022-10-18T08:05:51;12.47;;;5.60;;
19887;SDS011;10106;51.332;12.336;2022-10-18T08:08:18;7.10;;;4.10;;
19887;SDS011;10106;51.332;12.336;2022-10-18T08:10:44;6.30;;;3.80;;
19887;SDS011;10106;51.332;12.336;2022-10-18T08:13:10;5.40;;;3.60;;
19887;SDS011;10106;51.332;12.336;2022-10-18T08:15:39;9.10;;;3.50;;
19887;SDS011;10106;51.332;12.336;2022-10-18T08:18:05;7.47;;;4.87;;
19887;SDS011;10106;51.332;12.336;2022-10-18T08:20:31;3.83;;;3.37;;
19887;SDS011;10106;51.332;12.336;2022-10-18T08:22:57;6.97;;;4.20;;
19887;SDS011;10106;51.332;12.336;2022-10-18T08:25:24;5.63;;;3.27;;
19887;SDS011;10106;51.332;12.336;2022-10-18T08:27:49;19.97;;;3.33;;
19887;SDS011;10106;51.332;12.336;2022-10-18T08:30:15;5.30;;;3.50;;
19887;SDS011;10106;51.332;12.336;2022-10-18T08:32:41;18.90;;;5.40;;
19887;SDS011;10106;51.332;12.336;2022-10-18T08:35:07;9.70;;;3.10;;
19887;SDS011;10106;51.332;12.336;2022-10-18T08:37:33;2.83;;;2.57;;
19887;SDS011;10106;51.332;12.336;2022-10-18T08:39:58;3.70;;;2.70;;
19887;SDS011;10106;51.332;12.336;2022-10-18T08:45:16;3.77;;;2.90;;
19887;SDS011;10106;51.332;12.336;2022-10-18T08:47:42;4.33;;;2.17;;
19887;SDS011;10106;51.332;12.336;2022-10-18T08:50:18;4.73;;;2.30;;
19887;SDS011;10106;51.332;12.336;2022-10-18T08:52:57;2.37;;;2.00;;
19887;SDS011;10106;51.332;12.336;2022-10-18T08:55:37;4.60;;;1.77;;
19887;SDS011;10106;51.332;12.336;2022-10-18T08:58:16;2.00;;;1.60;;
19887;SDS011;10106;51.332;12.336;2022-10-18T09:00:49;2.60;;;1.60;;
19887;SDS011;10106;51.332;12.336;2022-10-18T09:06:03;3.47;;;2.03;;
19887;SDS011;10106;51.332;12.336;2022-10-18T09:14:52;2.90;;;1.90;;
19887;SDS011;10106;51.332;12.336;2022-10-18T09:20:39;3.17;;;2.07;;
19887;SDS011;10106;51.332;12.336;2022-10-18T09:23:21;4.50;;;2.70;;
19887;SDS011;10106;51.332;12.336;2022-10-18T09:25:52;4.10;;;2.30;;
19887;SDS011;10106;51.332;12.336;2022-10-18T09:28:41;2.53;;;2.17;;
19887;SDS011;10106;51.332;12.336;2022-10-18T09:34:21;3.10;;;1.90;;
19887;SDS011;10106;51.332;12.336;2022-10-18T09:36:59;3.63;;;2.20;;
19887;SDS011;10106;51.332;12.336;2022-10-18T09:39:30;1.70;;;1.60;;
19887;SDS011;10106;51.332;12.336;2022-10-18T09:44:34;2.83;;;1.80;;
19887;SDS011;10106;51.332;12.336;2022-10-18T09:47:17;1.83;;;1.73;;
19887;SDS011;10106;51.332;12.336;2022-10-18T09:49:56;2.10;;;1.87;;
19887;SDS011;10106;51.332;12.336;2022-10-18T09:52:27;6.80;;;2.40;;
19887;SDS011;10106;51.332;12.336;2022-10-18T09:55:02;4.60;;;2.63;;
19887;SDS011;10106;51.332;12.336;2022-10-18T10:00:12;3.43;;;2.37;;
19887;SDS011;10106;51.332;12.336;2022-10-18T10:02:42;4.33;;;2.37;;
19887;SDS011;10106;51.332;12.336;2022-10-18T10:05:11;3.23;;;2.60;;
19887;SDS011;10106;51.332;12.336;2022-10-18T10:07:45;4.60;;;2.20;;
19887;SDS011;10106;51.332;12.336;2022-10-18T10:10:13;2.80;;;2.47;;
19887;SDS011;10106;51.332;12.336;2022-10-18T10:12:44;3.70;;;2.53;;
19887;SDS011;10106;51.332;12.336;2022-10-18T10:18:00;6.20;;;2.57;;
19887;SDS011;10106;51.332;12.336;2022-10-18T10:20:52;3.33;;;2.60;;
19887;SDS011;10106;51.332;12.336;2022-10-18T10:25:51;5.87;;;3.10;;
19887;SDS011;10106;51.332;12.336;2022-10-18T10:28:41;6.33;;;2.70;;
19887;SDS011;10106;51.332;12.336;2022-10-18T10:33:59;3.43;;;2.60;;
19887;SDS011;10106;51.332;12.336;2022-10-18T10:36:27;2.60;;;2.33;;
19887;SDS011;10106;51.332;12.336;2022-10-18T10:41:53;3.93;;;2.80;;
19887;SDS011;10106;51.332;12.336;2022-10-18T10:44:24;4.13;;;2.97;;
19887;SDS011;10106;51.332;12.336;2022-10-18T10:46:54;4.43;;;2.60;;
19887;SDS011;10106;51.332;12.336;2022-10-18T10:49:21;13.00;;;3.27;;
19887;SDS011;10106;51.332;12.336;2022-10-18T10:52:20;3.40;;;2.83;;
19887;SDS011;10106;51.332;12.336;2022-10-18T10:54:48;4.80;;;3.17;;
19887;SDS011;10106;51.332;12.336;2022-10-18T10:59:44;6.73;;;3.33;;
19887;SDS011;10106;51.332;12.336;2022-10-18T11:02:28;4.53;;;3.03;;
19887;SDS011;10106;51.332;12.336;2022-10-18T11:07:50;6.13;;;3.40;;
19887;SDS011;10106;51.332;12.336;2022-10-18T11:10:24;8.60;;;3.40;;
19887;SDS011;10106;51.332;12.336;2022-10-18T11:13:05;9.40;;;4.00;;
19887;SDS011;10106;51.332;12.336;2022-10-18T11:15:44;5.80;;;3.80;;
19887;SDS011;10106;51.332;12.336;2022-10-18T11:18:20;8.73;;;4.80;;
19887;SDS011;10106;51.332;12.336;2022-10-18T11:20:56;8.80;;;4.67;;
19887;SDS011;10106;51.332;12.336;2022-10-18T11:23:35;6.00;;;3.53;;
19887;SDS011;10106;51.332;12.336;2022-10-18T11:26:08;5.20;;;3.13;;
19887;SDS011;10106;51.332;12.336;2022-10-18T11:37:25;4.37;;;2.90;;
19887;SDS011;10106;51.332;12.336;2022-10-18T11:50:53;4.93;;;3.57;;
19887;SDS011;10106;51.332;12.336;2022-10-18T11:58:53;3.50;;;2.80;;
19887;SDS011;10106;51.332;12.336;2022-10-18T12:01:34;2.70;;;2.13;;
19887;SDS011;10106;51.332;12.336;2022-10-18T12:04:15;4.27;;;2.53;;
19887;SDS011;10106;51.332;12.336;2022-10-18T12:06:44;3.20;;;2.90;;
19887;SDS011;10106;51.332;12.336;2022-10-18T12:11:50;4.20;;;3.10;;
19887;SDS011;10106;51.332;12.336;2022-10-18T12:16:48;4.87;;;3.20;;
19887;SDS011;10106;51.332;12.336;2022-10-18T12:19:19;4.77;;;3.57;;
19887;SDS011;10106;51.332;12.336;2022-10-18T12:21:48;4.77;;;3.57;;
19887;SDS011;10106;51.332;12.336;2022-10-18T12:24:15;4.97;;;3.77;;
19887;SDS011;10106;51.332;12.336;2022-10-18T12:26:48;5.43;;;4.10;;
19887;SDS011;10106;51.332;12.336;2022-10-18T12:29:23;5.80;;;3.40;;
19887;SDS011;10106;51.332;12.336;2022-10-18T12:32:08;4.53;;;3.73;;
19887;SDS011;10106;51.332;12.336;2022-10-18T12:34:40;6.33;;;2.70;;
19887;SDS011;10106;51.332;12.336;2022-10-18T12:37:22;8.07;;;4.17;;
19887;SDS011;10106;51.332;12.336;2022-10-18T12:40:02;2.87;;;2.40;;
19887;SDS011;10106;51.332;12.336;2022-10-18T12:42:45;5.10;;;3.50;;
19887;SDS011;10106;51.332;12.336;2022-10-18T12:45:19;4.63;;;3.43;;
19887;SDS011;10106;51.332;12.336;2022-10-18T12:47:49;6.50;;;2.50;;
19887;SDS011;10106;51.332;12.336;2022-10-18T12:53:00;6.50;;;3.20;;
19887;SDS011;10106;51.332;12.336;2022-10-18T12:55:40;4.53;;;2.90;;
19887;SDS011;10106;51.332;12.336;2022-10-18T13:19:12;3.70;;;2.90;;
19887;SDS011;10106;51.332;12.336;2022-10-18T13:24:20;5.63;;;3.40;;
19887;SDS011;10106;51.332;12.336;2022-10-18T13:26:55;4.70;;;3.50;;
19887;SDS011;10106;51.332;12.336;2022-10-18T13:32:17;17.47;;;4.00;;
19887;SDS011;10106;51.332;12.336;2022-10-18T13:34:49;5.90;;;3.50;;
19887;SDS011;10106;51.332;12.336;2022-10-18T13:39:40;5.80;;;4.27;;
19887;SDS011;10106;51.332;12.336;2022-10-18T13:44:38;6.43;;;3.90;;
19887;SDS011;10106;51.332;12.336;2022-10-18T14:11:52;3.40;;;2.80;;
19887;SDS011;10106;51.332;12.336;2022-10-18T14:14:39;4.53;;;3.03;;
19887;SDS011;10106;51.332;12.336;2022-10-18T14:17:22;8.30;;;2.70;;
19887;SDS011;10106;51.332;12.336;2022-10-18T14:20:05;5.10;;;2.67;;
19887;SDS011;10106;51.332;12.336;2022-10-18T14:22:52;3.57;;;2.73;;
19887;SDS011;10106;51.332;12.336;2022-10-18T14:25:32;2.90;;;2.17;;
19887;SDS011;10106;51.332;12.336;2022-10-18T14:28:16;2.50;;;2.30;;
19887;SDS011;10106;51.332;12.336;2022-10-18T14:30:56;4.07;;;2.40;;
19887;SDS011;10106;51.332;12.336;2022-10-18T14:33:37;3.03;;;2.30;;
19887;SDS011;10106;51.332;12.336;2022-10-18T14:39:03;3.20;;;2.37;;
19887;SDS011;10106;51.332;12.336;2022-10-18T14:41:31;4.07;;;3.33;;
19887;SDS011;10106;51.332;12.336;2022-10-18T14:46:42;5.20;;;3.27;;
19887;SDS011;10106;51.332;12.336;2022-10-18T14:49:24;4.53;;;3.20;;
19887;SDS011;10106;51.332;12.336;2022-10-18T14:51:51;4.70;;;3.73;;
19887;SDS011;10106;51.332;12.336;2022-10-18T14:54:19;6.50;;;4.27;;
19887;SDS011;10106;51.332;12.336;2022-10-18T14:56:51;5.07;;;3.60;;
19887;SDS011;10106;51.332;12.336;2022-10-18T14:59:18;4.43;;;3.07;;
19887;SDS011;10106;51.332;12.336;2022-10-18T15:01:57;7.27;;;4.70;;
19887;SDS011;10106;51.332;12.336;2022-10-18T15:04:24;5.10;;;3.67;;
19887;SDS011;10106;51.332;12.336;2022-10-18T15:07:00;5.10;;;4.00;;
19887;SDS011;10106;51.332;12.336;2022-10-18T15:09:32;6.10;;;3.57;;
19887;SDS011;10106;51.332;12.336;2022-10-18T15:12:01;6.00;;;3.90;;
19887;SDS011;10106;51.332;12.336;2022-10-18T15:14:29;7.80;;;4.20;;
19887;SDS011;10106;51.332;12.336;2022-10-18T15:16:58;6.60;;;3.93;;
19887;SDS011;10106;51.332;12.336;2022-10-18T15:24:37;8.17;;;4.63;;
19887;SDS011;10106;51.332;12.336;2022-10-18T15:29:48;9.47;;;5.20;;
19887;SDS011;10106;51.332;12.336;2022-10-18T15:34:42;6.67;;;4.00;;
19887;SDS011;10106;51.332;12.336;2022-10-18T15:37:41;7.80;;;4.43;;
19887;SDS011;10106;51.332;12.336;2022-10-18T15:42:48;6.97;;;3.93;;
19887;SDS011;10106;51.332;12.336;2022-10-18T15:58:37;9.73;;;5.70;;
19887;SDS011;10106;51.332;12.336;2022-10-18T16:01:19;10.23;;;6.60;;
19887;SDS011;10106;51.332;12.336;2022-10-18T16:03:47;12.30;;;5.87;;
19887;SDS011;10106;51.332;12.336;2022-10-18T16:06:14;14.20;;;7.60;;
19887;SDS011;10106;51.332;12.336;2022-10-18T16:08:45;11.80;;;7.87;;
19887;SDS011;10106;51.332;12.336;2022-10-18T16:13:43;15.23;;;7.50;;
19887;SDS011;10106;51.332;12.336;2022-10-18T16:16:20;11.73;;;7.00;;
19887;SDS011;10106;51.332;12.336;2022-10-18T16:18:50;10.93;;;5.80;;
19887;SDS011;10106;51.332;12.336;2022-10-18T16:21:27;12.83;;;7.23;;
19887;SDS011;10106;51.332;12.336;2022-10-18T16:23:58;12.40;;;8.30;;
19887;SDS011;10106;51.332;12.336;2022-10-18T16:26:24;10.30;;;6.20;;
19887;SDS011;10106;51.332;12.336;2022-10-18T16:28:51;11.80;;;5.53;;
19887;SDS011;10106;51.332;12.336;2022-10-18T16:31:22;9.57;;;6.67;;
19887;SDS011;10106;51.332;12.336;2022-10-18T16:33:50;10.50;;;7.17;;
19887;SDS011;10106;51.332;12.336;2022-10-18T16:36:17;14.00;;;7.17;;
19887;SDS011;10106;51.332;12.336;2022-10-18T16:38:45;12.13;;;7.73;;
19887;SDS011;10106;51.332;12.336;2022-10-18T16:41:11;15.80;;;7.00;;
19887;SDS011;10106;51.332;12.336;2022-10-18T16:43:37;18.90;;;8.70;;
19887;SDS011;10106;51.332;12.336;2022-10-18T16:46:04;12.73;;;7.87;;
19887;SDS011;10106;51.332;12.336;2022-10-18T16:48:30;16.43;;;8.57;;
19887;SDS011;10106;51.332;12.336;2022-10-18T16:50:57;12.77;;;8.37;;
19887;SDS011;10106;51.332;12.336;2022-10-18T16:53:23;10.10;;;6.77;;
19887;SDS011;10106;51.332;12.336;2022-10-18T16:55:54;11.50;;;7.53;;
19887;SDS011;10106;51.332;12.336;2022-10-18T16:58:25;17.57;;;8.90;;
19887;SDS011;10106;51.332;12.336;2022-10-18T17:00:51;14.57;;;7.67;;
19887;SDS011;10106;51.332;12.336;2022-10-18T17:03:18;11.20;;;6.47;;
19887;SDS011;10106;51.332;12.336;2022-10-18T17:05:44;11.10;;;5.20;;
19887;SDS011;10106;51.332;12.336;2022-10-18T17:08:21;10.33;;;6.30;;
19887;SDS011;10106;51.332;12.336;2022-10-18T17:10:49;12.23;;;6.80;;
19887;SDS011;10106;51.332;12.336;2022-10-18T17:13:19;11.23;;;6.23;;
19887;SDS011;10106;51.332;12.336;2022-10-18T17:15:46;15.50;;;5.87;;
19887;SDS011;10106;51.332;12.336;2022-10-18T17:18:12;11.53;;;6.60;;
19887;SDS011;10106;51.332;12.336;2022-10-18T17:20:41;11.20;;;5.97;;
19887;SDS011;10106;51.332;12.336;2022-10-18T17:23:07;10.37;;;5.00;;
19887;SDS011;10106;51.332;12.336;2022-10-18T17:25:35;8.43;;;6.30;;
19887;SDS011;10106;51.332;12.336;2022-10-18T17:28:01;10.27;;;6.50;;
19887;SDS011;10106;51.332;12.336;2022-10-18T17:30:28;12.37;;;5.57;;
19887;SDS011;10106;51.332;12.336;2022-10-18T17:32:53;10.80;;;6.63;;
19887;SDS011;10106;51.332;12.336;2022-10-18T17:35:19;10.63;;;5.77;;
19887;SDS011;10106;51.332;12.336;2022-10-18T17:37:48;17.90;;;6.97;;
19887;SDS011;10106;51.332;12.336;2022-10-18T17:40:16;8.93;;;7.00;;
19887;SDS011;10106;51.332;12.336;2022-10-18T17:42:42;12.90;;;6.70;;
19887;SDS011;10106;51.332;12.336;2022-10-18T17:45:07;8.23;;;5.50;;
19887;SDS011;10106;51.332;12.336;2022-10-18T17:47:33;11.03;;;5.90;;
19887;SDS011;10106;51.332;12.336;2022-10-18T17:49:59;9.03;;;6.77;;
19887;SDS011;10106;51.332;12.336;2022-10-18T17:52:25;14.13;;;6.73;;
19887;SDS011;10106;51.332;12.336;2022-10-18T17:54:50;15.33;;;7.63;;
19887;SDS011;10106;51.332;12.336;2022-10-18T17:57:16;11.20;;;6.47;;
19887;SDS011;10106;51.332;12.336;2022-10-18T17:59:42;15.20;;;7.83;;
19887;SDS011;10106;51.332;12.336;2022-10-18T18:02:08;13.97;;;7.07;;
19887;SDS011;10106;51.332;12.336;2022-10-18T18:04:35;15.40;;;7.97;;